Time;durP1;ratioP1;P1;durP2;ratioP2;P2;SDS_P1;SDS_P2;PMS_P1;PMS_P2;Temp;Humidity;BMP_temperature;BMP_pressure;BME280_temperature;BME280_humidity;BME280_pressure;Samples;Min_cycle;Max_cycle;Signal;HPM_P1;HPM_P2
2022/04/30 00:01:17;;;;;;;;;;;21.70;33.60;;;;;;489334;243;1085;-76
2022/04/30 00:03:18;;;;;;;;;;;21.70;33.70;;;;;;486456;245;1022;-76
2022/04/30 00:05:19;;;;;;;;;;;21.60;33.80;;;;;;489024;244;1250;-76
2022/04/30 00:07:20;;;;;;;;;;;21.60;33.70;;;;;;486645;245;1063;-76
2022/04/30 00:09:22;;;;;;;;;;;21.70;33.70;;;;;;489238;243;1438;-76
2022/04/30 00:11:23;;;;;;;;;;;21.80;33.70;;;;;;486455;245;1082;-75
2022/04/30 00:13:25;;;;;;;;;;;21.70;33.70;;;;;;489039;243;1025;-75
2022/04/30 00:15:26;;;;;;;;;;;21.70;33.70;;;;;;486480;245;1040;-75
2022/04/30 00:17:27;;;;;;;;;;;21.80;33.70;;;;;;489080;244;2193;-76
2022/04/30 00:19:29;;;;;;;;;;;21.90;33.70;;;;;;486524;245;950;-75
2022/04/30 00:21:30;;;;;;;;;;;21.70;33.80;;;;;;488957;242;1248;-76
2022/04/30 00:23:31;;;;;;;;;;;21.70;33.80;;;;;;486495;245;1244;-76
2022/04/30 00:25:33;;;;;;;;;;;21.70;34.00;;;;;;489304;243;1191;-76
2022/04/30 00:27:34;;;;;;;;;;;21.80;33.80;;;;;;486560;245;1119;-76
2022/04/30 00:29:35;;;;;;;;;;;21.80;33.70;;;;;;489477;243;1084;-76
2022/04/30 00:31:36;;;;;;;;;;;21.80;33.60;;;;;;486505;245;1220;-76
2022/04/30 00:33:38;;;;;;;;;;;21.70;33.80;;;;;;488992;244;1053;-75
2022/04/30 00:35:39;;;;;;;;;;;21.80;33.80;;;;;;486541;245;2112;-75
2022/04/30 00:37:41;;;;;;;;;;;21.80;33.70;;;;;;489027;244;1493;-75
2022/04/30 00:39:42;;;;;;;;;;;21.80;33.70;;;;;;486526;245;1118;-75
2022/04/30 00:41:44;;;;;;;;;;;21.80;33.80;;;;;;489158;243;1199;-76
2022/04/30 00:43:45;;;;;;;;;;;21.80;33.80;;;;;;486646;245;1376;-76
2022/04/30 00:45:46;;;;;;;;;;;21.80;33.80;;;;;;489196;243;1233;-76
2022/04/30 00:47:48;;;;;;;;;;;21.80;33.90;;;;;;486721;245;1140;-76
2022/04/30 00:49:49;;;;;;;;;;;21.80;34.00;;;;;;488960;244;1055;-76
2022/04/30 00:51:50;;;;;;;;;;;21.70;34.00;;;;;;486536;245;1162;-76
2022/04/30 00:53:52;;;;;;;;;;;21.70;34.00;;;;;;489237;243;1111;-76
2022/04/30 00:55:53;;;;;;;;;;;21.70;34.00;;;;;;486436;245;2187;-76
2022/04/30 00:57:55;;;;;;;;;;;21.60;34.20;;;;;;489056;244;1236;-76
2022/04/30 00:59:57;;;;;;;;;;;21.60;34.10;;;;;;486587;245;1070;-76
2022/04/30 01:01:59;;;;;;;;;;;21.70;34.20;;;;;;489132;243;1822;-76
2022/04/30 01:03:59;;;;;;;;;;;21.60;34.20;;;;;;486352;245;2010;-76
2022/04/30 01:06:00;;;;;;;;;;;21.60;34.20;;;;;;489087;243;1203;-76
2022/04/30 01:08:01;;;;;;;;;;;21.70;34.00;;;;;;486398;245;1185;-75
2022/04/30 01:10:03;;;;;;;;;;;21.70;34.10;;;;;;488995;244;1141;-75
2022/04/30 01:12:06;;;;;;;;;;;21.70;34.20;;;;;;486783;245;1301;-75
2022/04/30 01:14:07;;;;;;;;;;;21.80;34.10;;;;;;489066;244;1491;-75
2022/04/30 01:16:07;;;;;;;;;;;21.70;34.10;;;;;;486477;245;2206;-75
2022/04/30 01:18:08;;;;;;;;;;;21.80;34.00;;;;;;489197;244;1065;-76
2022/04/30 01:20:09;;;;;;;;;;;21.80;34.10;;;;;;486500;245;1021;-76
2022/04/30 01:22:11;;;;;;;;;;;21.80;34.10;;;;;;489119;243;1089;-76
2022/04/30 01:24:12;;;;;;;;;;;21.80;34.00;;;;;;486470;245;1041;-76
2022/04/30 01:26:14;;;;;;;;;;;21.70;34.00;;;;;;488962;244;1180;-76
2022/04/30 01:28:15;;;;;;;;;;;21.80;34.00;;;;;;486691;245;1070;-76
2022/04/30 01:30:19;;;;;;;;;;;21.80;34.00;;;;;;489076;243;1063;-76
2022/04/30 01:39:17;;;;;;;;;;;21.80;34.00;;;;;;489042;244;1103;-76
2022/04/30 01:41:18;;;;;;;;;;;21.80;34.10;;;;;;486478;245;1336;-76
2022/04/30 01:43:20;;;;;;;;;;;21.70;34.10;;;;;;488971;244;1060;-76
2022/04/30 01:45:21;;;;;;;;;;;21.70;34.10;;;;;;486488;245;1299;-76
2022/04/30 01:47:22;;;;;;;;;;;21.70;34.10;;;;;;489010;244;1095;-75
2022/04/30 01:49:23;;;;;;;;;;;21.70;34.20;;;;;;486501;245;1049;-75
2022/04/30 01:51:25;;;;;;;;;;;21.80;34.10;;;;;;489074;243;1247;-75
2022/04/30 01:53:26;;;;;;;;;;;21.80;34.00;;;;;;486544;245;973;-75
2022/04/30 01:55:28;;;;;;;;;;;21.90;34.00;;;;;;489079;243;1298;-75
2022/04/30 01:57:29;;;;;;;;;;;21.80;34.10;;;;;;486490;245;2147;-75
2022/04/30 01:59:30;;;;;;;;;;;21.80;34.10;;;;;;489029;244;1066;-75
2022/04/30 02:01:32;;;;;;;;;;;21.80;34.10;;;;;;486480;245;1270;-75
2022/04/30 02:03:33;;;;;;;;;;;21.80;34.00;;;;;;489195;244;1050;-75
2022/04/30 02:05:35;;;;;;;;;;;21.80;34.00;;;;;;486523;245;1197;-75
2022/04/30 02:07:39;;;;;;;;;;;21.80;34.10;;;;;;489089;244;1064;-75
2022/04/30 02:09:38;;;;;;;;;;;21.80;34.10;;;;;;486635;245;1333;-76
2022/04/30 02:11:39;;;;;;;;;;;21.80;34.20;;;;;;489070;244;1159;-76
2022/04/30 02:13:40;;;;;;;;;;;21.70;34.20;;;;;;486458;245;1086;-76
2022/04/30 02:15:42;;;;;;;;;;;21.80;34.20;;;;;;489128;243;1136;-75
2022/04/30 02:17:43;;;;;;;;;;;21.80;34.20;;;;;;486420;245;2131;-75
2022/04/30 02:22:04;;;;;;;;;;;21.70;34.30;;;;;;486482;245;1101;-75
2022/04/30 02:24:05;;;;;;;;;;;21.70;34.20;;;;;;489056;244;1042;-75
2022/04/30 02:26:06;;;;;;;;;;;21.70;34.20;;;;;;486479;245;1256;-75
2022/04/30 02:28:08;;;;;;;;;;;21.80;34.10;;;;;;489163;243;1086;-75
2022/04/30 02:30:09;;;;;;;;;;;21.70;34.20;;;;;;486469;245;1102;-75
2022/04/30 02:32:10;;;;;;;;;;;21.70;34.30;;;;;;488944;244;1072;-75
2022/04/30 02:34:11;;;;;;;;;;;21.70;34.20;;;;;;486509;245;1098;-75
2022/04/30 02:36:15;;;;;;;;;;;21.80;34.20;;;;;;489166;243;1252;-75
2022/04/30 02:38:15;;;;;;;;;;;21.80;34.20;;;;;;486431;245;2174;-75
2022/04/30 02:40:16;;;;;;;;;;;21.70;34.20;;;;;;489296;243;1053;-76
2022/04/30 02:42:17;;;;;;;;;;;21.70;34.30;;;;;;486362;245;1174;-76
2022/04/30 02:44:19;;;;;;;;;;;21.70;34.30;;;;;;489220;243;1105;-76
2022/04/30 02:46:20;;;;;;;;;;;21.70;34.30;;;;;;486560;245;1171;-76
2022/04/30 02:48:22;;;;;;;;;;;21.60;34.30;;;;;;489103;243;1150;-76
2022/04/30 02:50:23;;;;;;;;;;;21.70;34.30;;;;;;486438;245;1068;-75
2022/04/30 02:52:24;;;;;;;;;;;21.70;34.30;;;;;;489100;243;1250;-76
2022/04/30 02:54:26;;;;;;;;;;;21.80;34.30;;;;;;486470;245;969;-75
2022/04/30 02:56:28;;;;;;;;;;;21.80;34.20;;;;;;489064;242;2138;-76
2022/04/30 03:00:47;;;;;;;;;;;21.60;34.40;;;;;;489087;244;1259;-75
2022/04/30 03:02:49;;;;;;;;;;;21.70;34.40;;;;;;486661;245;1082;-75
2022/04/30 03:04:52;;;;;;;;;;;21.70;34.40;;;;;;489067;243;1032;-75
2022/04/30 03:06:52;;;;;;;;;;;21.80;34.20;;;;;;486741;237;1422;-75
2022/04/30 03:08:54;;;;;;;;;;;21.80;34.20;;;;;;489145;243;1073;-75
2022/04/30 03:10:55;;;;;;;;;;;21.70;34.30;;;;;;486554;245;1125;-75
2022/04/30 03:12:57;;;;;;;;;;;21.70;34.30;;;;;;489146;244;1117;-75
2022/04/30 03:14:58;;;;;;;;;;;21.80;34.30;;;;;;486593;245;1087;-76
2022/04/30 03:21:45;;;;;;;;;;;21.70;34.40;;;;;;479848;244;1209;-76
2022/04/30 03:23:47;;;;;;;;;;;21.80;34.30;;;;;;486570;245;1052;-76
2022/04/30 03:25:49;;;;;;;;;;;21.70;34.30;;;;;;488997;244;1201;-76
2022/04/30 03:27:50;;;;;;;;;;;21.70;34.50;;;;;;486705;245;1127;-76
2022/04/30 03:29:51;;;;;;;;;;;21.70;34.60;;;;;;489039;243;1195;-76
2022/04/30 03:31:53;;;;;;;;;;;21.60;34.60;;;;;;486570;245;1141;-76
2022/04/30 03:33:54;;;;;;;;;;;21.70;34.50;;;;;;488990;243;1065;-76
2022/04/30 03:35:55;;;;;;;;;;;21.60;34.70;;;;;;486456;245;1155;-76
2022/04/30 03:37:57;;;;;;;;;;;21.70;34.50;;;;;;489155;244;2181;-76
2022/04/30 03:39:58;;;;;;;;;;;21.80;34.30;;;;;;486537;245;1192;-76
2022/04/30 03:41:59;;;;;;;;;;;21.90;34.30;;;;;;488934;242;1183;-76
2022/04/30 03:44:02;;;;;;;;;;;21.90;34.30;;;;;;486500;245;1169;-76
2022/04/30 03:46:04;;;;;;;;;;;21.80;34.40;;;;;;488994;244;1398;-76
2022/04/30 03:48:04;;;;;;;;;;;21.80;34.50;;;;;;486735;242;1310;-76
2022/04/30 03:50:05;;;;;;;;;;;21.70;34.40;;;;;;489033;243;1041;-76
2022/04/30 03:52:06;;;;;;;;;;;21.80;34.30;;;;;;486420;245;1216;-76
2022/04/30 03:54:07;;;;;;;;;;;21.80;34.40;;;;;;489189;243;1021;-75
2022/04/30 03:56:09;;;;;;;;;;;21.80;34.50;;;;;;486417;245;1113;-76
2022/04/30 03:58:10;;;;;;;;;;;21.60;34.50;;;;;;489021;243;2138;-76
2022/04/30 04:00:12;;;;;;;;;;;21.70;34.60;;;;;;486392;245;1066;-76
2022/04/30 04:02:13;;;;;;;;;;;21.70;34.50;;;;;;488975;243;1174;-76
2022/04/30 04:04:15;;;;;;;;;;;21.80;34.40;;;;;;486445;245;959;-76
2022/04/30 04:06:16;;;;;;;;;;;21.80;34.40;;;;;;489042;242;1269;-76
2022/04/30 04:08:17;;;;;;;;;;;21.90;34.40;;;;;;486592;245;1105;-76
2022/04/30 04:10:18;;;;;;;;;;;21.80;34.40;;;;;;488942;244;1118;-76
2022/04/30 04:12:20;;;;;;;;;;;21.90;34.40;;;;;;486516;245;1131;-76
2022/04/30 04:18:59;;;;;;;;;;;21.70;34.50;;;;;;489007;244;1170;-76
2022/04/30 04:21:00;;;;;;;;;;;21.70;34.40;;;;;;486373;245;1374;-76
2022/04/30 04:23:02;;;;;;;;;;;21.90;34.40;;;;;;488929;243;1310;-76
2022/04/30 04:27:22;;;;;;;;;;;21.80;34.40;;;;;;488966;244;1137;-76
2022/04/30 04:29:24;;;;;;;;;;;21.80;34.40;;;;;;486435;245;1159;-76
2022/04/30 04:31:25;;;;;;;;;;;21.80;34.40;;;;;;489053;243;1125;-76
2022/04/30 04:33:26;;;;;;;;;;;21.90;34.40;;;;;;486587;245;1136;-76
2022/04/30 04:35:28;;;;;;;;;;;21.90;34.40;;;;;;488951;244;1098;-76
2022/04/30 04:37:29;;;;;;;;;;;21.90;34.40;;;;;;486396;245;2186;-76
2022/04/30 04:39:30;;;;;;;;;;;21.80;34.40;;;;;;489025;243;1073;-76
2022/04/30 04:41:32;;;;;;;;;;;21.80;34.40;;;;;;486392;245;1154;-76
2022/04/30 04:43:33;;;;;;;;;;;21.70;34.50;;;;;;488999;244;1160;-76
2022/04/30 04:45:34;;;;;;;;;;;21.70;34.60;;;;;;486615;245;1063;-75
2022/04/30 04:47:36;;;;;;;;;;;21.80;34.70;;;;;;489049;244;1294;-76
2022/04/30 04:49:37;;;;;;;;;;;21.90;34.50;;;;;;486493;245;1030;-76
2022/04/30 04:51:38;;;;;;;;;;;21.80;34.50;;;;;;488896;244;1225;-76
2022/04/30 04:53:40;;;;;;;;;;;21.80;34.50;;;;;;486534;245;1013;-76
2022/04/30 04:55:41;;;;;;;;;;;21.80;34.50;;;;;;488976;243;1139;-76
2022/04/30 04:57:42;;;;;;;;;;;21.90;34.50;;;;;;486388;245;2116;-76
2022/04/30 04:59:44;;;;;;;;;;;21.80;34.70;;;;;;489048;243;1159;-76
2022/04/30 05:01:48;;;;;;;;;;;21.80;34.60;;;;;;486599;245;1193;-75
2022/04/30 05:03:46;;;;;;;;;;;21.80;34.80;;;;;;488819;244;1495;-76
2022/04/30 05:05:48;;;;;;;;;;;21.70;34.80;;;;;;487044;245;1725;-76
2022/04/30 05:07:49;;;;;;;;;;;21.70;34.80;;;;;;487084;245;1027;-76
2022/04/30 05:09:50;;;;;;;;;;;21.80;34.70;;;;;;486976;245;1189;-76
2022/04/30 05:11:52;;;;;;;;;;;21.90;34.60;;;;;;486967;245;1175;-76
2022/04/30 05:13:53;;;;;;;;;;;21.80;34.60;;;;;;487370;244;1136;-76
2022/04/30 05:15:54;;;;;;;;;;;21.70;34.70;;;;;;486982;245;1056;-76
2022/04/30 05:17:55;;;;;;;;;;;21.70;34.70;;;;;;487360;245;2198;-76
2022/04/30 05:19:57;;;;;;;;;;;21.70;34.80;;;;;;486979;245;996;-76
2022/04/30 05:21:58;;;;;;;;;;;21.80;34.70;;;;;;486992;245;1227;-76
2022/04/30 05:23:59;;;;;;;;;;;21.90;34.70;;;;;;487109;245;965;-76
2022/04/30 05:26:01;;;;;;;;;;;21.80;34.70;;;;;;487069;245;1213;-76
2022/04/30 05:28:02;;;;;;;;;;;21.90;34.80;;;;;;487156;245;1097;-76
2022/04/30 05:30:03;;;;;;;;;;;21.80;34.80;;;;;;487088;245;1133;-75
2022/04/30 05:32:05;;;;;;;;;;;21.70;35.00;;;;;;486896;245;1201;-75
2022/04/30 05:34:06;;;;;;;;;;;21.80;35.00;;;;;;487018;245;1068;-76
2022/04/30 05:36:08;;;;;;;;;;;21.90;35.00;;;;;;487025;245;1262;-76
2022/04/30 05:38:09;;;;;;;;;;;21.80;35.00;;;;;;487194;245;2119;-76
2022/04/30 05:40:10;;;;;;;;;;;21.90;34.90;;;;;;487144;245;1055;-76
2022/04/30 05:42:11;;;;;;;;;;;21.90;34.90;;;;;;487028;245;1072;-76
2022/04/30 05:44:13;;;;;;;;;;;21.90;35.00;;;;;;487050;245;1165;-76
2022/04/30 05:46:14;;;;;;;;;;;21.90;34.90;;;;;;487041;244;1269;-76
2022/04/30 05:48:15;;;;;;;;;;;21.80;34.90;;;;;;487074;245;1074;-76
2022/04/30 05:50:17;;;;;;;;;;;21.80;35.00;;;;;;487011;245;1166;-76
2022/04/30 05:52:19;;;;;;;;;;;21.70;34.90;;;;;;486962;245;1264;-75
2022/04/30 05:54:20;;;;;;;;;;;21.80;35.00;;;;;;487032;245;1077;-75
2022/04/30 05:56:21;;;;;;;;;;;21.70;35.10;;;;;;487005;245;1255;-76
2022/04/30 05:58:23;;;;;;;;;;;21.80;35.00;;;;;;487257;245;2123;-76
2022/04/30 06:00:24;;;;;;;;;;;21.70;35.00;;;;;;487243;245;1198;-76
2022/04/30 06:02:25;;;;;;;;;;;21.70;35.00;;;;;;487023;245;1141;-76
2022/04/30 06:04:28;;;;;;;;;;;21.80;35.00;;;;;;487025;245;1053;-76
2022/04/30 06:06:28;;;;;;;;;;;21.70;35.10;;;;;;486979;245;1485;-75
2022/04/30 06:08:29;;;;;;;;;;;21.80;35.00;;;;;;487018;245;1101;-76
2022/04/30 06:10:31;;;;;;;;;;;21.80;35.00;;;;;;487016;245;1196;-76
2022/04/30 06:12:34;;;;;;;;;;;21.80;35.00;;;;;;487167;245;1054;-76
2022/04/30 06:14:33;;;;;;;;;;;21.80;35.00;;;;;;486879;245;1383;-76
2022/04/30 06:16:35;;;;;;;;;;;21.90;35.00;;;;;;486840;245;1193;-76
2022/04/30 06:18:36;;;;;;;;;;;21.80;35.10;;;;;;486975;245;2175;-76
2022/04/30 06:20:37;;;;;;;;;;;21.90;35.10;;;;;;486998;245;1093;-75
2022/04/30 06:22:40;;;;;;;;;;;21.80;35.20;;;;;;487108;245;1282;-76
2022/04/30 06:24:40;;;;;;;;;;;21.90;35.20;;;;;;486964;245;1443;-76
2022/04/30 06:26:42;;;;;;;;;;;21.80;35.20;;;;;;486954;245;1128;-76
2022/04/30 06:28:43;;;;;;;;;;;21.80;35.30;;;;;;487048;245;1029;-76
2022/04/30 06:30:44;;;;;;;;;;;21.90;35.20;;;;;;487039;245;1159;-76
2022/04/30 06:32:46;;;;;;;;;;;21.90;35.40;;;;;;487120;245;1075;-76
2022/04/30 06:34:47;;;;;;;;;;;21.70;35.70;;;;;;486989;245;1204;-76
2022/04/30 06:36:48;;;;;;;;;;;21.60;35.70;;;;;;487077;245;1294;-76
2022/04/30 06:38:49;;;;;;;;;;;21.60;35.80;;;;;;487034;245;2185;-76
2022/04/30 06:40:51;;;;;;;;;;;21.60;35.80;;;;;;487063;245;1420;-76
2022/04/30 06:42:52;;;;;;;;;;;21.70;35.80;;;;;;487026;245;1055;-75
2022/04/30 06:44:54;;;;;;;;;;;21.80;35.80;;;;;;487124;245;1157;-75
2022/04/30 06:46:55;;;;;;;;;;;21.80;35.70;;;;;;486901;245;1179;-75
2022/04/30 06:48:56;;;;;;;;;;;21.90;35.60;;;;;;487232;245;1136;-75
2022/04/30 06:50:58;;;;;;;;;;;21.80;35.60;;;;;;486886;245;1203;-76
2022/04/30 06:57:38;;;;;;;;;;;21.70;35.80;;;;;;486949;245;1144;-76
2022/04/30 06:59:41;;;;;;;;;;;21.90;35.70;;;;;;487045;245;2182;-76
2022/04/30 07:01:44;;;;;;;;;;;21.80;35.70;;;;;;487118;245;1414;-76
2022/04/30 07:03:45;;;;;;;;;;;21.40;36.10;;;;;;486989;245;1387;-76
2022/04/30 07:05:46;;;;;;;;;;;21.30;36.60;;;;;;487145;243;1247;-76
2022/04/30 07:07:47;;;;;;;;;;;21.10;36.80;;;;;;487136;245;1086;-76
2022/04/30 07:09:50;;;;;;;;;;;21.10;36.90;;;;;;487025;245;1174;-76
2022/04/30 07:11:50;;;;;;;;;;;21.10;37.10;;;;;;487110;245;1450;-75
2022/04/30 07:13:51;;;;;;;;;;;21.00;37.10;;;;;;487028;245;1087;-76
2022/04/30 07:15:53;;;;;;;;;;;21.00;37.10;;;;;;487005;245;1190;-76
2022/04/30 07:17:54;;;;;;;;;;;21.00;37.10;;;;;;487124;245;1134;-76
2022/04/30 07:19:55;;;;;;;;;;;21.00;37.30;;;;;;486919;245;1048;-76
2022/04/30 07:21:57;;;;;;;;;;;21.00;37.40;;;;;;486974;245;1423;-76
2022/04/30 07:23:58;;;;;;;;;;;21.00;37.50;;;;;;487047;245;1095;-76
2022/04/30 07:25:59;;;;;;;;;;;20.90;37.50;;;;;;486984;243;1432;-75
2022/04/30 07:28:01;;;;;;;;;;;20.90;37.60;;;;;;487065;245;1504;-76
2022/04/30 07:30:03;;;;;;;;;;;20.80;37.60;;;;;;486998;245;1208;-76
2022/04/30 07:32:05;;;;;;;;;;;20.80;37.80;;;;;;486873;245;1563;-76
2022/04/30 07:34:05;;;;;;;;;;;20.80;37.80;;;;;;486793;245;1545;-76
2022/04/30 07:36:06;;;;;;;;;;;20.80;37.80;;;;;;487016;245;1222;-76
2022/04/30 07:38:07;;;;;;;;;;;20.80;37.90;;;;;;487042;245;2132;-76
2022/04/30 07:40:09;;;;;;;;;;;20.80;37.80;;;;;;487124;245;1073;-76
2022/04/30 07:42:10;;;;;;;;;;;20.80;38.00;;;;;;487082;245;1203;-76
2022/04/30 07:44:12;;;;;;;;;;;20.70;38.00;;;;;;487037;245;976;-76
2022/04/30 07:46:13;;;;;;;;;;;20.70;38.10;;;;;;486907;245;1213;-76
2022/04/30 07:48:14;;;;;;;;;;;20.70;38.10;;;;;;486912;245;1038;-76
2022/04/30 07:50:17;;;;;;;;;;;20.70;38.00;;;;;;487040;245;945;-76
2022/04/30 07:52:18;;;;;;;;;;;20.90;37.80;;;;;;487079;245;1060;-76
2022/04/30 07:54:19;;;;;;;;;;;21.10;37.40;;;;;;486996;245;1031;-76
2022/04/30 07:56:20;;;;;;;;;;;21.20;37.20;;;;;;487136;245;1183;-76
2022/04/30 07:58:22;;;;;;;;;;;21.40;36.70;;;;;;486956;245;2132;-76
2022/04/30 08:00:23;;;;;;;;;;;21.50;36.70;;;;;;486979;245;1392;-76
2022/04/30 08:02:25;;;;;;;;;;;21.60;36.50;;;;;;487049;245;1315;-76
2022/04/30 08:04:26;;;;;;;;;;;21.60;36.50;;;;;;487060;245;1478;-76
2022/04/30 08:06:27;;;;;;;;;;;21.60;36.50;;;;;;487025;243;1246;-75
2022/04/30 08:08:29;;;;;;;;;;;21.60;36.40;;;;;;487049;245;1051;-75
2022/04/30 08:10:30;;;;;;;;;;;21.80;36.30;;;;;;487006;245;1515;-76
2022/04/30 08:12:31;;;;;;;;;;;21.70;36.30;;;;;;487213;245;1125;-76
2022/04/30 08:14:33;;;;;;;;;;;21.70;36.20;;;;;;487034;245;1081;-76
2022/04/30 08:16:34;;;;;;;;;;;21.70;36.30;;;;;;486918;245;1183;-76
2022/04/30 08:18:35;;;;;;;;;;;21.70;36.30;;;;;;487096;245;2173;-76
2022/04/30 08:20:37;;;;;;;;;;;21.70;36.40;;;;;;487008;245;1192;-76
2022/04/30 08:22:38;;;;;;;;;;;21.70;36.30;;;;;;487034;245;1488;-76
2022/04/30 08:24:39;;;;;;;;;;;21.80;36.30;;;;;;487070;245;1113;-76
2022/04/30 08:26:41;;;;;;;;;;;21.80;36.40;;;;;;486922;245;1235;-76
2022/04/30 08:28:42;;;;;;;;;;;21.70;36.60;;;;;;487155;245;1137;-76
2022/04/30 08:30:43;;;;;;;;;;;21.70;36.50;;;;;;486983;245;1240;-76
2022/04/30 08:32:45;;;;;;;;;;;21.60;36.70;;;;;;487029;245;1243;-75
2022/04/30 08:34:46;;;;;;;;;;;21.70;36.80;;;;;;487124;245;1072;-76
2022/04/30 08:36:48;;;;;;;;;;;21.60;36.70;;;;;;486992;245;1145;-76
2022/04/30 08:38:49;;;;;;;;;;;21.70;36.70;;;;;;486956;245;2183;-76
2022/04/30 08:40:50;;;;;;;;;;;21.70;36.60;;;;;;486954;245;1216;-76
2022/04/30 08:42:51;;;;;;;;;;;21.70;36.50;;;;;;486947;245;1061;-76
2022/04/30 08:44:53;;;;;;;;;;;21.80;36.50;;;;;;486971;245;1010;-75
2022/04/30 08:46:54;;;;;;;;;;;21.90;36.40;;;;;;486933;245;1198;-76
2022/04/30 08:48:55;;;;;;;;;;;21.90;36.20;;;;;;486953;245;1038;-76
2022/04/30 08:50:57;;;;;;;;;;;22.00;36.10;;;;;;486976;245;1159;-76
2022/04/30 08:52:58;;;;;;;;;;;22.00;36.00;;;;;;487060;245;1317;-76
2022/04/30 08:54:59;;;;;;;;;;;22.00;35.90;;;;;;487014;245;1040;-76
2022/04/30 08:57:01;;;;;;;;;;;22.10;35.90;;;;;;486912;245;1161;-76
2022/04/30 08:59:04;;;;;;;;;;;21.90;36.10;;;;;;487000;245;2115;-75
2022/04/30 09:01:03;;;;;;;;;;;21.80;36.40;;;;;;486948;245;1295;-76
2022/04/30 09:03:05;;;;;;;;;;;21.90;36.30;;;;;;487006;245;1095;-76
2022/04/30 09:05:06;;;;;;;;;;;21.90;36.40;;;;;;487035;245;946;-76
2022/04/30 09:07:07;;;;;;;;;;;21.90;36.30;;;;;;487123;245;1233;-76
2022/04/30 09:09:09;;;;;;;;;;;21.80;36.60;;;;;;487015;245;998;-76
2022/04/30 09:11:10;;;;;;;;;;;21.80;36.50;;;;;;487082;245;1237;-76
2022/04/30 09:13:12;;;;;;;;;;;21.90;36.50;;;;;;486987;245;1031;-76
2022/04/30 09:15:13;;;;;;;;;;;21.80;36.50;;;;;;487104;245;1095;-76
2022/04/30 09:17:14;;;;;;;;;;;21.80;36.70;;;;;;486983;245;1187;-76
2022/04/30 09:19:15;;;;;;;;;;;21.80;36.70;;;;;;486996;245;2119;-76
2022/04/30 09:21:17;;;;;;;;;;;21.80;36.70;;;;;;487007;245;1225;-76
2022/04/30 09:23:18;;;;;;;;;;;21.70;36.80;;;;;;487017;245;1127;-76
2022/04/30 09:25:19;;;;;;;;;;;21.70;36.80;;;;;;487020;245;1043;-75
2022/04/30 09:27:21;;;;;;;;;;;21.70;36.80;;;;;;486961;245;1104;-76
2022/04/30 09:29:22;;;;;;;;;;;21.70;36.80;;;;;;487055;245;1030;-76
2022/04/30 09:31:23;;;;;;;;;;;21.70;36.80;;;;;;486993;245;1276;-76
2022/04/30 09:33:25;;;;;;;;;;;21.80;36.90;;;;;;486983;245;1053;-76
2022/04/30 09:37:48;;;;;;;;;;;21.70;36.80;;;;;;487136;245;1132;-76
2022/04/30 09:39:47;;;;;;;;;;;21.90;36.70;;;;;;486968;245;2181;-76
2022/04/30 09:41:49;;;;;;;;;;;21.80;36.80;;;;;;487228;245;1097;-76
2022/04/30 09:43:50;;;;;;;;;;;22.00;36.70;;;;;;487083;245;1063;-76
2022/04/30 09:45:51;;;;;;;;;;;22.00;36.50;;;;;;487014;245;1258;-76
2022/04/30 09:47:53;;;;;;;;;;;21.90;36.50;;;;;;486969;245;1102;-76
2022/04/30 09:54:33;;;;;;;;;;;21.90;36.50;;;;;;487043;245;1104;-76
2022/04/30 09:56:34;;;;;;;;;;;21.70;36.80;;;;;;486967;245;1231;-76
2022/04/30 09:58:36;;;;;;;;;;;21.70;36.60;;;;;;486994;245;1313;-76
2022/04/30 10:00:38;;;;;;;;;;;21.80;36.40;;;;;;487170;245;2198;-76
2022/04/30 10:02:38;;;;;;;;;;;21.90;36.30;;;;;;487035;245;1455;-76
2022/04/30 10:04:40;;;;;;;;;;;21.90;36.20;;;;;;487326;245;969;-76
2022/04/30 10:06:41;;;;;;;;;;;21.90;36.10;;;;;;487020;245;1143;-76
2022/04/30 10:08:44;;;;;;;;;;;21.90;36.20;;;;;;487031;245;1114;-76
2022/04/30 10:10:44;;;;;;;;;;;21.90;36.20;;;;;;486933;245;1463;-76
2022/04/30 10:12:46;;;;;;;;;;;21.80;36.20;;;;;;486949;245;1108;-76
2022/04/30 10:14:47;;;;;;;;;;;21.90;36.20;;;;;;487166;245;1458;-76
2022/04/30 10:17:10;;;;;;;;;;;21.90;36.20;;;;;;487067;245;1402;-76
2022/04/30 10:18:54;;;;;;;;;;;21.80;36.40;;;;;;485577;245;1184;-76
2022/04/30 10:20:51;;;;;;;;;;;21.90;36.30;;;;;;486845;245;2186;-76
2022/04/30 10:22:52;;;;;;;;;;;21.90;36.20;;;;;;486921;245;1040;-76
2022/04/30 10:24:54;;;;;;;;;;;21.80;36.20;;;;;;487028;245;1066;-76
2022/04/30 10:26:56;;;;;;;;;;;22.00;36.10;;;;;;486985;245;1399;-76
2022/04/30 10:28:56;;;;;;;;;;;22.00;36.00;;;;;;486957;245;1480;-76
2022/04/30 10:30:58;;;;;;;;;;;22.00;36.00;;;;;;486947;245;1242;-76
2022/04/30 10:32:59;;;;;;;;;;;21.90;36.00;;;;;;486970;245;1052;-76
2022/04/30 10:35:00;;;;;;;;;;;22.00;35.90;;;;;;486974;245;1072;-76
2022/04/30 10:37:02;;;;;;;;;;;21.90;36.00;;;;;;486977;245;1398;-76
2022/04/30 10:39:05;;;;;;;;;;;21.90;36.10;;;;;;486940;245;1035;-76
2022/04/30 10:41:04;;;;;;;;;;;22.00;36.00;;;;;;486815;243;2117;-76
2022/04/30 10:43:06;;;;;;;;;;;21.90;36.10;;;;;;487081;245;1166;-76
2022/04/30 10:45:09;;;;;;;;;;;21.80;36.00;;;;;;487012;245;1055;-76
2022/04/30 10:47:09;;;;;;;;;;;21.90;36.20;;;;;;486871;245;1559;-76
2022/04/30 10:49:10;;;;;;;;;;;22.00;35.90;;;;;;486982;245;1094;-76
2022/04/30 10:51:12;;;;;;;;;;;21.90;36.00;;;;;;487023;243;1403;-76
2022/04/30 10:53:13;;;;;;;;;;;21.90;36.10;;;;;;487174;245;1056;-76
2022/04/30 10:55:14;;;;;;;;;;;21.80;36.10;;;;;;487016;245;1207;-76
2022/04/30 10:57:16;;;;;;;;;;;21.60;36.30;;;;;;486887;245;1326;-76
2022/04/30 10:59:17;;;;;;;;;;;21.80;36.20;;;;;;487020;245;2198;-76
2022/04/30 11:01:18;;;;;;;;;;;21.80;36.20;;;;;;486943;243;1328;-76
2022/04/30 11:03:20;;;;;;;;;;;21.80;36.20;;;;;;487169;245;1172;-76
2022/04/30 11:05:22;;;;;;;;;;;21.80;36.00;;;;;;487100;245;1053;-76
2022/04/30 11:07:23;;;;;;;;;;;22.00;35.90;;;;;;486997;245;1179;-76
2022/04/30 11:09:25;;;;;;;;;;;22.00;35.80;;;;;;486936;245;1038;-76
2022/04/30 11:11:26;;;;;;;;;;;22.00;35.90;;;;;;486993;240;1120;-76
2022/04/30 11:13:27;;;;;;;;;;;22.00;35.80;;;;;;486945;245;978;-76
2022/04/30 11:15:29;;;;;;;;;;;22.10;35.80;;;;;;486980;245;1155;-76
2022/04/30 11:17:30;;;;;;;;;;;22.00;36.00;;;;;;487034;245;1092;-76
2022/04/30 11:19:31;;;;;;;;;;;22.00;35.90;;;;;;486939;245;2190;-76
2022/04/30 11:21:33;;;;;;;;;;;22.00;36.20;;;;;;487074;245;1143;-76
2022/04/30 11:23:34;;;;;;;;;;;21.80;36.20;;;;;;487245;245;1045;-76
2022/04/30 11:25:36;;;;;;;;;;;22.00;36.20;;;;;;486997;245;998;-76
2022/04/30 11:27:37;;;;;;;;;;;22.00;36.20;;;;;;487128;245;1212;-76
2022/04/30 11:29:38;;;;;;;;;;;21.80;36.30;;;;;;487047;245;1087;-76
2022/04/30 11:31:39;;;;;;;;;;;21.90;36.30;;;;;;487154;245;1413;-76
2022/04/30 11:33:41;;;;;;;;;;;21.80;36.60;;;;;;486975;245;1315;-76
2022/04/30 11:35:42;;;;;;;;;;;22.00;36.30;;;;;;486981;245;1223;-76
2022/04/30 11:37:43;;;;;;;;;;;22.00;36.30;;;;;;486984;245;1053;-76
2022/04/30 11:39:45;;;;;;;;;;;21.90;36.30;;;;;;487015;245;2119;-76
2022/04/30 11:41:46;;;;;;;;;;;21.90;36.60;;;;;;486904;245;1137;-76
2022/04/30 11:43:47;;;;;;;;;;;21.90;36.50;;;;;;487023;245;1127;-76
2022/04/30 11:45:49;;;;;;;;;;;21.80;36.70;;;;;;486936;245;1197;-76
2022/04/30 11:47:50;;;;;;;;;;;21.80;36.70;;;;;;486943;244;1230;-76
2022/04/30 11:49:51;;;;;;;;;;;21.90;36.60;;;;;;486969;245;1027;-76
2022/04/30 11:51:53;;;;;;;;;;;21.90;36.70;;;;;;486943;245;1210;-76
2022/04/30 11:53:54;;;;;;;;;;;21.90;36.70;;;;;;487007;245;1092;-76
2022/04/30 11:55:55;;;;;;;;;;;21.90;36.70;;;;;;486915;245;1085;-76
2022/04/30 11:57:57;;;;;;;;;;;22.00;36.60;;;;;;486986;245;1073;-76
2022/04/30 11:59:58;;;;;;;;;;;21.90;36.80;;;;;;487007;245;2407;-76
2022/04/30 12:01:59;;;;;;;;;;;21.90;36.80;;;;;;487070;245;1141;-76
2022/04/30 12:04:01;;;;;;;;;;;21.80;36.90;;;;;;487177;245;1194;-76
2022/04/30 12:06:02;;;;;;;;;;;22.00;36.90;;;;;;486888;245;1236;-76
2022/04/30 12:08:04;;;;;;;;;;;22.00;36.80;;;;;;487130;245;1194;-76
2022/04/30 12:10:05;;;;;;;;;;;21.90;36.90;;;;;;487209;245;1471;-76
2022/04/30 12:12:07;;;;;;;;;;;22.00;37.00;;;;;;487062;245;1111;-76
2022/04/30 12:14:07;;;;;;;;;;;22.00;36.90;;;;;;486898;245;1494;-76
2022/04/30 12:16:09;;;;;;;;;;;22.00;37.00;;;;;;486970;243;1218;-76
2022/04/30 12:25:09;;;;;;;;;;;22.00;37.30;;;;;;486993;245;1233;-76
2022/04/30 12:27:10;;;;;;;;;;;22.10;37.30;;;;;;486936;245;1474;-76
2022/04/30 12:29:11;;;;;;;;;;;21.90;37.60;;;;;;487037;245;984;-76
2022/04/30 12:31:12;;;;;;;;;;;22.00;37.50;;;;;;487028;245;1260;-76
2022/04/30 12:33:13;;;;;;;;;;;22.10;37.40;;;;;;487069;245;1198;-76
2022/04/30 12:35:15;;;;;;;;;;;22.00;37.60;;;;;;487053;245;1343;-76
2022/04/30 12:37:16;;;;;;;;;;;22.00;37.60;;;;;;487001;245;1159;-76
2022/04/30 12:39:18;;;;;;;;;;;21.90;37.70;;;;;;487015;245;1038;-76